Westgate, New York
Current Conditions -  °F | °C
As of 4:54 AM on Friday 28 Nov 2014 (Local Time) from KROC Reporting Station
Light Snow Light Snow  
Wind Chill: 16°   Ceiling: 5000
Heat Index: 26°   Visibility: 9mi
Dew Point: 15°   Wind: 12mph
Humidity: 63%   Direction: 290°WNW
Pressure: 30.17"   Gusts: NA
Location:  43.1271°N, 77.7339°W
Report Text: KROC 280954Z 29010KT 9SM -SN OVC050 M03/M09 A3017 RMK AO2 SLP227 P0000 T10331094
Loading
Personal Weather Stations






























Interactive Weather Map New forecast layout! Learn more

10-Day Weather Forecast

Advertisements
Track Severe Weather on mobile